ADDS METAR Data INFO
IDs: Format: Raw Decoded Include TAF

Data at: 0147 UTC 17 Oct 2017

KIYA 170115Z AUTO 01006KT 10SM CLR 17/07 A3018 RMK AO2
KIYA 170055Z AUTO 01007KT 10SM CLR 17/08 A3018 RMK AO2
KIYA 170015Z AUTO 01006KT 10SM CLR 18/08 A3016 RMK AO2
KIYA 162356Z AUTO 01005KT 10SM CLR 19/08 A3015 RMK AO2
KIYA 162255Z AUTO 01011KT 10SM CLR 21/07 A3012 RMK AO2
KIYA 162215Z AUTO 01008G20KT 10SM CLR 23/06 A3011 RMK AO2
KIYA 162155Z AUTO 01013G18KT 10SM CLR 23/06 A3011 RMK AO2
KIYA 162135Z AUTO 03013G18KT 10SM CLR 24/05 A3011 RMK AO2
KIYA 162057Z AUTO 01011G19KT 10SM CLR 24/06 A3010 RMK AO2
KIYA 162035Z AUTO 36015G20KT 10SM CLR 24/07 A3011 RMK AO2
KIYA 162015Z AUTO 02008G18KT 10SM CLR 24/08 A3011 RMK AO2
KIYA 161955Z AUTO 01014G21KT 10SM CLR 23/07 A3011 RMK AO2
KIYA 161916Z AUTO 01014G19KT 10SM CLR 23/08 A3012 RMK AO2
KIYA 161855Z AUTO 02011KT 10SM CLR 23/08 A3013 RMK AO2
KIYA 161836Z AUTO 36016G20KT 10SM CLR 23/07 A3014 RMK AO2
KIYA 161815Z AUTO 36014G20KT 10SM CLR 23/08 A3016 RMK AO2
KIYA 161736Z AUTO 01014G19KT 10SM CLR 22/08 A3017 RMK AO2
KIYA 161616Z AUTO 02013G21KT 10SM CLR 21/09 A3020 RMK AO2
KIYA 161557Z AUTO 01014G21KT 10SM CLR 20/10 A3020 RMK AO2
KIYA 161536Z AUTO 01014G19KT 10SM CLR 19/11 A3021 RMK AO2
KIYA 161515Z AUTO 02015G19KT 10SM CLR 19/11 A3021 RMK AO2
KIYA 161455Z AUTO 01013G25KT 10SM CLR 18/11 A3021 RMK AO2
KIYA 161415Z AUTO 01013G18KT 10SM CLR 18/11 A3020 RMK AO2
KIYA 161335Z AUTO 01016G21KT 10SM CLR 17/11 A3018 RMK AO2
KIYA 161316Z AUTO 02012G19KT 10SM CLR 17/11 A3017 RMK AO2
KIYA 161235Z AUTO 01009G15KT 10SM SCT065 17/11 A3016 RMK AO2
KIYA 161056Z AUTO 01011G21KT 10SM SCT048 17/11 A3012 RMK AO2
KIYA 161015Z AUTO 01012G15KT 10SM SCT090 18/13 A3011 RMK AO2
KIYA 160835Z AUTO 36010G15KT 10SM BKN028 19/17 A3011 RMK AO2
KIYA 160756Z AUTO 01010G17KT 10SM BKN040 19/18 A3011 RMK AO2 LTG DSNT S
KIYA 160717Z AUTO 01010KT 10SM SCT020 20/18 A3011 RMK AO2
KIYA 160656Z AUTO 01014G17KT 10SM SCT020 21/18 A3011 RMK AO2
KIYA 160636Z AUTO 01014G21KT 10SM OVC020 21/18 A3011 RMK AO2
KIYA 160615Z AUTO 01012G17KT 10SM OVC020 21/19 A3012 RMK AO2
KIYA 160535Z AUTO 36010G15KT 10SM OVC018 22/20 A3012 RMK AO2
KIYA 160516Z AUTO 36013G21KT 10SM OVC018 22/21 A3012 RMK AO2
KIYA 160415Z AUTO 01012G20KT 10SM OVC018 24/23 A3011 RMK AO2
KIYA 160356Z AUTO 01014G20KT 10SM BKN020 OVC026 25/23 A3011 RMK AO2
KIYA 160335Z AUTO 34010KT 10SM SCT022 BKN028 OVC043 26/24 A3010 RMK AO2
KIYA 160316Z AUTO 34012G17KT 10SM SCT029 BKN034 BKN042 25/24 A3009 RMK AO2
KIYA 160255Z AUTO 00000KT 10SM SCT050 23/23 A3008 RMK AO2
KIYA 160216Z AUTO 13003KT 10SM SCT050 23/23 A3007 RMK AO2
KIYA 160156Z AUTO 00000KT 10SM SCT050 23/23 A3006 RMK AO2
KIYA 160117Z AUTO 00000KT 10SM CLR 24/24 A3005 RMK AO2 LTG DSNT S
KIYA 160055Z AUTO 00000KT 10SM CLR 24/24 A3004 RMK AO2 LTG DSNT N
KIYA 160035Z AUTO 35003KT 10SM CLR 25/24 A3003 RMK AO2
KIYA 160015Z AUTO 00000KT 10SM CLR 26/24 A3003 RMK AO2
KIYA 152336Z AUTO 00000KT 10SM CLR 27/23 A3002 RMK AO2 LTG DSNT E
KIYA 152315Z AUTO 00000KT 10SM CLR 28/23 A3002 RMK AO2
KIYA 152235Z AUTO 03003KT 10SM SCT044 29/23 A3002 RMK AO2 LTG DSNT S
KIYA 152215Z AUTO 00000KT 10SM CLR 31/23 A3001 RMK AO2
KIYA 152156Z AUTO 05006KT 10SM CLR 31/22 A3000 RMK AO2 LTG DSNT E THRU SW
KIYA 152135Z AUTO 04004KT 10SM CLR 31/23 A3000 RMK AO2 LTG DSNT SE
KIYA 152116Z AUTO 02009KT 10SM CLR 31/23 A3000 RMK AO2 LTG DSNT SE
KIYA 152057Z AUTO 36008KT 10SM SCT041 31/23 A3000 RMK AO2 LTG DSNT SE
KIYA 152036Z AUTO 36007KT 10SM SCT039 SCT046 31/23 A2999 RMK AO2 LTG DSNT SE
KIYA 151955Z AUTO 36008KT 10SM SCT038 31/23 A3000 RMK AO2 LTG DSNT E
KIYA 151936Z AUTO 03006KT 10SM SCT036 31/23 A3001 RMK AO2 LTG DSNT SW
KIYA 151915Z AUTO 02005KT 10SM SCT034 31/23 A3001 RMK AO2
KIYA 151856Z AUTO 35005KT 10SM SCT032 31/24 A3002 RMK AO2 LTG DSNT NE AND SW
KIYA 151755Z AUTO 33007G14KT 10SM BKN028 BKN039 BKN049 30/25 A3005 RMK AO2 LTG DSNT SW
KIYA 151715Z AUTO 35005KT 10SM BKN024 BKN030 31/26 A3008 RMK AO2 LTG DSNT SW
KIYA 151656Z AUTO 00000KT 10SM SCT021 BKN026 28/26 A3008 RMK AO2 LTG DSNT SW
KIYA 151637Z AUTO 33003KT 10SM SCT018 BKN026 BKN041 28/25 A3010 RMK AO2
KIYA 151537Z AUTO 02003KT 10SM BKN008 BKN018 26/26 A3011 RMK AO2
KIYA 151515Z AUTO 02004KT 10SM BKN004 BKN012 25/25 A3011 RMK AO2
KIYA 151436Z AUTO 01004KT 2SM BR OVC002 24/24 A3010 RMK AO2
KIYA 151357Z AUTO 36006KT 1/2SM FG OVC002 23/23 A3008 RMK AO2